Time;durP1;ratioP1;P1;durP2;ratioP2;P2;SDS_P1;SDS_P2;PMS_P1;PMS_P2;Temp;Humidity;BMP_temperature;BMP_pressure;BME280_temperature;BME280_humidity;BME280_pressure;Samples;Min_cycle;Max_cycle;Signal;HPM_P1;HPM_P2
2024/01/21 00:00:24;;;;;;;;;45.25;39.25;;;;;6.43;92.20;101799.22;2096647;28;46695;-64
2024/01/21 00:01:25;;;;;;;;;41.40;37.40;;;;;6.42;92.56;101801.84;2096595;28;46295;-65
2024/01/21 00:02:25;;;;;;;;;42.50;38.75;;;;;6.41;92.31;101792.16;2095598;28;46387;-65
2024/01/21 00:03:25;;;;;;;;;42.50;38.75;;;;;6.39;91.96;101786.88;2096351;28;46170;-65
2024/01/21 00:04:26;;;;;;;;;43.00;39.50;;;;;6.40;92.19;101793.03;2096822;28;45701;-65
2024/01/21 00:05:26;;;;;;;;;39.00;36.00;;;;;6.39;92.22;101796.53;2096904;28;46275;-65
2024/01/21 00:06:26;;;;;;;;;40.75;39.00;;;;;6.39;92.11;101791.25;2095720;28;47004;-64
2024/01/21 00:07:27;;;;;;;;;40.75;34.50;;;;;6.38;92.49;101786.84;2096701;28;46591;-65
2024/01/21 00:08:27;;;;;;;;;43.00;39.50;;;;;6.36;92.06;101776.31;2096659;28;45949;-65
2024/01/21 00:09:28;;;;;;;;;35.50;34.00;;;;;6.34;92.01;101769.22;2096540;28;46811;-64
2024/01/21 00:10:29;;;;;;;;;34.20;33.40;;;;;6.32;92.09;101771.84;2096734;28;46398;-65
2024/01/21 00:11:29;;;;;;;;;36.00;34.25;;;;;6.31;92.04;101766.53;2096657;28;46616;-65
2024/01/21 00:12:29;;;;;;;;;44.00;37.25;;;;;6.28;91.93;101745.44;2096677;28;45571;-64
2024/01/21 00:13:30;;;;;;;;;38.75;36.75;;;;;6.27;92.00;101751.56;2096494;28;46758;-65
2024/01/21 00:14:30;;;;;;;;;37.25;33.25;;;;;6.25;92.42;101745.41;2094898;28;46419;-65
2024/01/21 00:15:30;;;;;;;;;40.25;38.50;;;;;6.25;92.77;101742.75;2095075;28;46641;-65
2024/01/21 00:16:30;;;;;;;;;39.00;36.75;;;;;6.27;92.97;101741.03;2097030;28;45772;-65
2024/01/21 00:17:31;;;;;;;;;36.00;35.00;;;;;6.26;92.71;101728.72;2096493;28;45823;-64
2024/01/21 00:18:31;;;;;;;;;35.75;32.50;;;;;6.26;92.72;101731.34;2096186;28;47210;-65
2024/01/21 00:19:31;;;;;;;;;35.25;32.25;;;;;6.27;92.44;101718.19;2096572;28;45881;-64
2024/01/21 00:20:32;;;;;;;;;40.50;33.00;;;;;6.30;92.71;101717.31;2096320;28;46505;-65
2024/01/21 00:21:33;;;;;;;;;34.75;33.75;;;;;6.29;92.79;101716.44;2096794;28;46113;-65
2024/01/21 00:22:33;;;;;;;;;36.00;32.25;;;;;6.26;92.45;101711.16;2097038;28;46008;-65
2024/01/21 00:23:33;;;;;;;;;49.50;42.50;;;;;6.24;92.22;101709.38;2096397;28;46979;-65
2024/01/21 00:24:33;;;;;;;;;57.50;46.25;;;;;6.23;92.52;101702.31;2096841;28;46655;-66
2024/01/21 00:25:34;;;;;;;;;43.25;38.50;;;;;6.20;92.22;101708.41;2096434;28;46235;-65
2024/01/21 00:26:35;;;;;;;;;38.25;37.00;;;;;6.17;92.01;101708.38;2097287;28;46881;-65
2024/01/21 00:27:36;;;;;;;;;61.00;50.75;;;;;6.15;92.39;101708.38;2096365;28;45474;-64
2024/01/21 00:28:36;;;;;;;;;78.25;63.25;;;;;6.14;92.61;101714.50;2096750;28;45612;-65
2024/01/21 00:29:36;;;;;;;;;52.00;44.00;;;;;6.14;92.70;101711.00;2096535;28;46226;-65
2024/01/21 00:30:37;;;;;;;;;45.75;39.75;;;;;6.14;92.54;101718.91;2096559;28;46633;-64
2024/01/21 00:31:37;;;;;;;;;42.00;37.25;;;;;6.14;92.37;101718.91;2094493;28;45885;-67
2024/01/21 00:32:37;;;;;;;;;34.00;33.75;;;;;6.13;92.48;101725.03;2094247;28;45284;-64
2024/01/21 00:33:38;;;;;;;;;37.00;33.25;;;;;6.14;92.27;101727.69;2095429;28;45519;-64
2024/01/21 00:34:38;;;;;;;;;38.25;36.00;;;;;6.15;92.87;101733.84;2096395;28;46748;-64
2024/01/21 00:35:38;;;;;;;;;36.50;36.25;;;;;6.15;93.28;101732.09;2096789;28;45921;-65
2024/01/21 00:36:39;;;;;;;;;39.25;33.25;;;;;6.18;93.32;101725.97;2096449;28;46374;-64
2024/01/21 00:37:39;;;;;;;;;38.50;36.50;;;;;6.19;93.03;101735.66;2096202;28;46834;-64
2024/01/21 00:38:41;;;;;;;;;34.25;33.25;;;;;6.20;93.21;101738.28;2096786;28;45306;-64
2024/01/21 00:39:41;;;;;;;;;32.80;29.60;;;;;6.19;93.05;101744.44;2096276;28;46595;-63
2024/01/21 00:40:42;;;;;;;;;35.50;34.00;;;;;6.18;92.88;101737.41;2095815;28;46372;-65
2024/01/21 00:41:42;;;;;;;;;31.50;29.50;;;;;6.19;92.97;101743.56;2095737;28;46611;-65
2024/01/21 00:42:43;;;;;;;;;33.25;32.00;;;;;6.22;92.96;101745.34;2096640;28;46654;-65
2024/01/21 00:43:43;;;;;;;;;30.50;30.50;;;;;6.23;93.23;101736.59;2096207;28;46408;-65
2024/01/21 00:44:43;;;;;;;;;39.25;34.75;;;;;6.24;93.06;101738.34;2096451;28;46323;-64
2024/01/21 00:45:44;;;;;;;;;26.50;26.25;;;;;6.22;93.06;101735.66;2095934;28;46603;-64
2024/01/21 00:46:44;;;;;;;;;38.25;35.50;;;;;6.23;92.94;101733.94;2095757;28;46786;-64
2024/01/21 00:47:44;;;;;;;;;37.25;32.25;;;;;6.22;92.88;101730.41;2096188;28;46364;-65
2024/01/21 00:48:45;;;;;;;;;31.50;31.00;;;;;6.23;93.10;101732.19;2096478;28;46098;-65
2024/01/21 00:49:46;;;;;;;;;34.75;33.25;;;;;6.24;92.55;101731.34;2096002;28;46229;-64
2024/01/21 00:50:46;;;;;;;;;36.40;32.00;;;;;6.23;92.55;101732.19;2095133;28;46549;-64
2024/01/21 00:51:46;;;;;;;;;30.75;27.25;;;;;6.22;92.45;101724.25;2096029;28;46448;-65
2024/01/21 00:52:47;;;;;;;;;34.50;30.25;;;;;6.19;92.40;101725.97;2096221;28;46276;-64
2024/01/21 00:53:47;;;;;;;;;36.75;32.50;;;;;6.18;92.65;101725.97;2095730;28;46728;-63
2024/01/21 00:54:47;;;;;;;;;29.75;28.25;;;;;6.17;92.04;101714.53;2095832;28;45680;-65
2024/01/21 00:55:48;;;;;;;;;33.00;30.50;;;;;6.17;92.18;101717.19;2096331;28;45614;-65
2024/01/21 00:56:48;;;;;;;;;27.25;27.25;;;;;6.19;92.20;101723.34;2096448;28;45369;-65
2024/01/21 00:57:49;;;;;;;;;32.50;31.75;;;;;6.18;92.38;101724.22;2099850;28;45560;-65
2024/01/21 00:58:49;;;;;;;;;36.00;33.50;;;;;6.18;92.16;101713.69;2096345;28;46461;-64
2024/01/21 00:59:49;;;;;;;;;25.25;19.00;;;;;6.06;92.21;101716.16;2103430;28;46411;-64
2024/01/21 01:00:50;;;;;;;;;30.25;30.25;;;;;6.02;92.41;101719.63;2103753;28;46291;-65
2024/01/21 01:01:50;;;;;;;;;28.25;28.00;;;;;6.00;92.87;101710.81;2103728;28;46606;-64
2024/01/21 01:02:50;;;;;;;;;33.25;31.25;;;;;6.06;93.01;101728.44;2103497;28;47133;-65
2024/01/21 01:03:50;;;;;;;;;32.25;27.25;;;;;5.98;92.70;101723.09;2103841;28;46644;-65
2024/01/21 01:04:51;;;;;;;;;38.75;32.75;;;;;5.96;93.02;101727.44;2103484;28;46603;-64
2024/01/21 01:05:51;;;;;;;;;36.25;32.50;;;;;6.00;93.48;101724.00;2104302;28;46336;-65
2024/01/21 01:06:52;;;;;;;;;28.00;27.25;;;;;6.01;92.40;101719.59;2104016;28;46858;-65
2024/01/21 01:07:52;;;;;;;;;19.25;18.00;;;;;6.03;92.70;101731.94;2102359;28;46482;-64
2024/01/21 01:08:52;;;;;;;;;32.75;32.00;;;;;6.06;92.58;101737.22;2103674;28;46375;-64
2024/01/21 01:09:53;;;;;;;;;31.50;27.00;;;;;6.05;92.30;101740.75;2104242;27;45928;-67
2024/01/21 01:10:53;;;;;;;;;33.50;30.75;;;;;6.05;92.15;101737.22;2108943;27;46884;-64
2024/01/21 01:11:53;;;;;;;;;31.00;27.50;;;;;6.05;92.11;101735.47;2103884;28;45804;-64
2024/01/21 01:12:55;;;;;;;;;33.25;32.25;;;;;6.04;92.24;101738.97;2103895;28;46254;-65
2024/01/21 01:13:56;;;;;;;;;33.20;30.20;;;;;6.03;92.04;101734.56;2099373;28;46436;-64
2024/01/21 01:14:56;;;;;;;;;31.50;30.25;;;;;6.06;92.24;101750.41;2097696;28;46628;-65
2024/01/21 01:15:58;;;;;;;;;29.00;27.00;;;;;6.08;92.23;101740.78;2103631;28;45675;-64
2024/01/21 01:16:59;;;;;;;;;31.80;30.20;;;;;6.10;92.37;101741.69;2103628;28;46399;-64
2024/01/21 01:17:59;;;;;;;;;35.25;31.75;;;;;6.13;92.46;101747.00;2104555;27;46211;-64
2024/01/21 01:18:59;;;;;;;;;36.25;29.50;;;;;6.15;92.27;101752.28;2105422;28;46750;-65
2024/01/21 01:20:00;;;;;;;;;29.00;26.75;;;;;6.14;91.89;101748.78;2109608;27;46844;-65
2024/01/21 01:21:00;;;;;;;;;28.75;28.00;;;;;6.13;91.60;101739.09;2107233;27;46727;-65
2024/01/21 01:22:01;;;;;;;;;36.75;33.75;;;;;6.15;91.88;101737.38;2104875;27;46726;-64
2024/01/21 01:23:01;;;;;;;;;32.00;30.25;;;;;6.15;91.69;101741.75;2097003;28;45579;-65
2024/01/21 01:24:01;;;;;;;;;35.25;33.00;;;;;6.17;91.71;101738.25;2087233;28;46841;-65
2024/01/21 01:25:02;;;;;;;;;32.25;29.50;;;;;6.18;92.10;101734.75;2096738;28;46452;-64
2024/01/21 01:26:02;;;;;;;;;33.00;29.75;;;;;6.20;92.21;101742.69;2105290;28;46209;-64
2024/01/21 01:27:03;;;;;;;;;25.00;22.25;;;;;6.22;91.89;101734.78;2105151;28;46489;-65
2024/01/21 01:28:03;;;;;;;;;35.25;34.00;;;;;6.22;92.11;101733.03;2105181;28;46716;-66
2024/01/21 01:29:04;;;;;;;;;33.75;31.00;;;;;6.22;91.65;101729.53;2087965;28;46581;-66
2024/01/21 01:30:05;;;;;;;;;31.75;30.00;;;;;6.23;91.72;101729.56;2088564;28;45563;-64
2024/01/21 01:31:05;;;;;;;;;31.80;30.20;;;;;6.23;91.69;101721.66;2103357;28;46614;-66
2024/01/21 01:32:06;;;;;;;;;33.25;31.50;;;;;6.24;91.81;101728.69;2097558;28;46686;-64
2024/01/21 01:33:06;;;;;;;;;35.00;32.50;;;;;6.24;91.75;101726.06;2097139;28;46450;-64
2024/01/21 01:34:07;;;;;;;;;33.50;31.00;;;;;6.23;91.45;101726.94;2097019;28;46264;-64
2024/01/21 01:35:08;;;;;;;;;29.75;29.75;;;;;6.24;91.88;101735.72;2097555;28;46716;-64
2024/01/21 01:36:08;;;;;;;;;27.20;26.20;;;;;6.25;91.47;101738.38;2097749;28;46402;-65
2024/01/21 01:37:09;;;;;;;;;29.00;27.50;;;;;6.26;91.84;101736.63;2097719;28;46590;-65
2024/01/21 01:38:12;;;;;;;;;31.50;29.50;;;;;6.25;91.51;101741.00;2097679;28;45739;-65
2024/01/21 01:39:12;;;;;;;;;34.40;27.60;;;;;6.27;91.95;101743.66;2095456;28;46566;-64
2024/01/21 01:40:17;;;;;;;;;34.25;28.00;;;;;6.26;91.91;101747.16;2097109;28;46941;-65
2024/01/21 01:41:17;;;;;;;;;34.20;30.60;;;;;6.29;91.56;101744.56;2098169;28;46156;-65
2024/01/21 01:42:18;;;;;;;;;29.75;26.50;;;;;6.30;91.70;101747.22;2097083;28;46211;-65
2024/01/21 01:43:18;;;;;;;;;29.25;28.50;;;;;6.31;91.59;101741.06;2096960;28;46760;-65
2024/01/21 01:44:18;;;;;;;;;30.75;27.75;;;;;6.31;91.83;101738.44;2097837;28;45672;-65
2024/01/21 01:45:19;;;;;;;;;39.50;35.50;;;;;6.33;91.56;101741.09;2097856;28;46761;-64
2024/01/21 01:46:19;;;;;;;;;27.75;27.25;;;;;6.32;91.38;101737.56;2097526;28;46141;-64
2024/01/21 01:47:19;;;;;;;;;32.00;29.25;;;;;6.34;91.26;101740.22;2097594;28;46164;-65
2024/01/21 01:48:22;;;;;;;;;34.25;31.00;;;;;6.34;91.27;101738.47;2097580;28;46284;-64
2024/01/21 01:49:23;;;;;;;;;32.20;29.60;;;;;6.35;91.32;101742.91;2102251;28;46178;-65
2024/01/21 01:50:25;;;;;;;;;34.60;33.20;;;;;6.35;91.88;101748.16;2096236;28;45815;-65
2024/01/21 01:51:26;;;;;;;;;37.00;34.20;;;;;6.35;91.67;101745.53;2091579;28;46701;-65
2024/01/21 01:52:27;;;;;;;;;32.40;29.80;;;;;6.33;91.27;101739.31;2097727;28;46573;-65
2024/01/21 01:53:28;;;;;;;;;23.00;20.00;;;;;6.33;91.59;101741.09;2097707;28;47077;-64
2024/01/21 01:54:30;;;;;;;;;32.60;30.60;;;;;6.32;91.19;101737.56;2098715;28;46560;-64
2024/01/21 01:55:31;;;;;;;;;34.60;32.00;;;;;6.34;91.34;101738.47;2096188;28;46299;-64
2024/01/21 01:56:31;;;;;;;;;31.80;29.00;;;;;6.36;91.56;101751.69;2097475;28;47027;-64
2024/01/21 01:57:32;;;;;;;;;34.25;32.75;;;;;6.36;91.19;101749.06;2097358;28;46401;-64
2024/01/21 01:58:34;;;;;;;;;31.00;29.00;;;;;6.38;91.75;101749.94;2097569;28;46149;-64
2024/01/21 01:59:36;;;;;;;;;35.60;34.00;;;;;6.39;91.14;101743.81;2097486;28;46130;-65
2024/01/21 02:00:37;;;;;;;;;34.20;31.80;;;;;6.39;91.32;101744.69;2097467;28;46573;-64
2024/01/21 02:01:38;;;;;;;;;36.00;32.75;;;;;6.38;91.05;101745.56;2097411;28;46456;-65
2024/01/21 02:02:40;;;;;;;;;35.25;31.00;;;;;6.40;91.05;101750.84;2096907;28;46310;-64
2024/01/21 02:03:41;;;;;;;;;32.00;30.20;;;;;6.40;91.14;101750.84;2097612;28;46368;-64
2024/01/21 02:04:42;;;;;;;;;34.00;31.20;;;;;6.41;91.01;101753.50;2097393;28;46617;-64
2024/01/21 02:05:42;;;;;;;;;32.75;30.50;;;;;6.43;91.04;101756.16;2097281;28;46763;-64
2024/01/21 02:06:42;;;;;;;;;33.00;33.00;;;;;6.44;90.78;101761.44;2097730;28;45581;-65
2024/01/21 02:07:43;;;;;;;;;33.25;32.25;;;;;6.44;90.91;101752.66;2097313;28;46265;-64
2024/01/21 02:08:43;;;;;;;;;37.75;32.75;;;;;6.45;91.00;101754.41;2097709;28;45957;-65
2024/01/21 02:09:43;;;;;;;;;34.25;29.50;;;;;6.47;90.99;101761.47;2097498;28;46631;-65
2024/01/21 02:10:44;;;;;;;;;28.25;28.25;;;;;6.47;91.30;101764.09;2097294;28;46257;-64
2024/01/21 02:11:44;;;;;;;;;32.25;32.25;;;;;6.49;91.26;101765.03;2096175;28;46280;-64
2024/01/21 02:12:45;;;;;;;;;28.75;25.25;;;;;6.50;91.32;101771.19;2097723;28;45634;-66
2024/01/21 02:13:45;;;;;;;;;29.00;27.00;;;;;6.50;90.81;101765.91;2093142;28;45032;-65
2024/01/21 02:14:45;;;;;;;;;34.25;33.00;;;;;6.48;91.07;101765.03;2090877;28;46569;-64
2024/01/21 02:15:46;;;;;;;;;38.25;33.25;;;;;6.46;91.13;101764.09;2096110;28;45900;-65
2024/01/21 02:16:46;;;;;;;;;35.50;32.50;;;;;6.45;91.28;101760.56;2096975;28;46755;-65
2024/01/21 02:17:46;;;;;;;;;27.50;25.75;;;;;6.44;90.58;101761.44;2097219;28;46335;-65
2024/01/21 02:18:49;;;;;;;;;32.50;28.50;;;;;6.45;90.93;101755.28;2097652;28;45747;-64
2024/01/21 02:19:49;;;;;;;;;38.00;33.00;;;;;6.45;91.03;101757.03;2097437;28;46999;-64
2024/01/21 02:20:51;;;;;;;;;29.75;29.25;;;;;6.49;90.80;101772.06;2097683;28;45487;-64
2024/01/21 02:21:51;;;;;;;;;33.60;31.80;;;;;6.46;90.80;101767.59;2097246;28;46340;-64
2024/01/21 02:22:56;;;;;;;;;35.50;33.00;;;;;6.49;90.94;101765.03;2097284;28;46659;-65
2024/01/21 02:23:56;;;;;;;;;32.60;29.20;;;;;6.49;91.04;101762.41;2097172;28;46944;-65
2024/01/21 02:24:56;;;;;;;;;30.75;26.25;;;;;6.49;90.70;101753.59;2097463;28;46838;-65
2024/01/21 02:25:57;;;;;;;;;32.00;29.50;;;;;6.49;90.53;101757.13;2097213;28;46315;-65
2024/01/21 02:26:58;;;;;;;;;33.75;31.50;;;;;6.50;90.40;101760.66;2097085;28;46489;-64
2024/01/21 02:27:58;;;;;;;;;27.00;24.00;;;;;6.48;90.41;101765.91;2097109;28;46369;-65
2024/01/21 02:28:58;;;;;;;;;36.75;33.75;;;;;6.49;90.64;101759.75;2094772;28;45016;-64
2024/01/21 02:29:59;;;;;;;;;30.50;29.50;;;;;6.51;91.13;101757.13;2096690;28;45879;-64
2024/01/21 02:30:59;;;;;;;;;39.00;34.25;;;;;6.53;90.86;101751.88;2097244;28;45492;-65
2024/01/21 02:31:59;;;;;;;;;34.25;28.75;;;;;6.54;90.92;101751.00;2101081;28;46664;-65
2024/01/21 02:32:59;;;;;;;;;29.25;28.00;;;;;6.55;90.55;101743.09;2097245;28;46493;-65
2024/01/21 02:34:00;;;;;;;;;30.75;27.00;;;;;6.55;90.79;101735.19;2097243;28;46286;-65
2024/01/21 02:35:00;;;;;;;;;34.50;30.50;;;;;6.55;90.74;101751.03;2096998;28;46330;-65
2024/01/21 02:36:00;;;;;;;;;27.25;27.25;;;;;6.54;90.49;101741.34;2097565;28;46185;-64
2024/01/21 02:37:01;;;;;;;;;30.00;28.75;;;;;6.58;90.95;101745.78;2096804;28;46462;-65
2024/01/21 02:38:02;;;;;;;;;33.00;32.00;;;;;6.59;90.74;101750.16;2097269;28;46563;-65
2024/01/21 02:39:03;;;;;;;;;30.20;29.80;;;;;6.58;90.77;101743.13;2097185;28;46523;-65
2024/01/21 02:40:03;;;;;;;;;31.25;30.00;;;;;6.59;90.60;101752.81;2097308;28;46472;-64
2024/01/21 02:41:04;;;;;;;;;32.00;32.00;;;;;6.59;90.35;101752.81;2096220;28;46777;-65
2024/01/21 02:42:04;;;;;;;;;34.00;30.75;;;;;6.59;90.55;101754.56;2096560;28;46578;-65
2024/01/21 02:43:07;;;;;;;;;29.50;27.50;;;;;6.58;90.58;101758.97;2097436;28;45709;-65
2024/01/21 02:44:07;;;;;;;;;31.60;27.60;;;;;6.57;90.52;101762.47;2098860;28;46433;-65
2024/01/21 02:45:08;;;;;;;;;30.00;27.75;;;;;6.58;90.37;101760.72;2099023;28;47042;-65
2024/01/21 02:46:08;;;;;;;;;32.50;28.75;;;;;6.57;90.53;101759.81;2096288;28;45594;-65
2024/01/21 02:47:08;;;;;;;;;29.25;29.00;;;;;6.59;90.52;101755.44;2097523;28;45541;-64
2024/01/21 02:48:09;;;;;;;;;32.25;29.50;;;;;6.59;90.64;101759.84;2097283;28;45884;-65
2024/01/21 02:49:09;;;;;;;;;32.00;30.50;;;;;6.60;90.54;101757.22;2097442;28;45719;-65
2024/01/21 02:50:09;;;;;;;;;32.75;29.25;;;;;6.62;90.86;101762.53;2097127;28;46661;-65
2024/01/21 02:51:14;;;;;;;;;31.00;30.00;;;;;6.63;90.33;101770.47;2101361;28;46692;-65
2024/01/21 02:52:14;;;;;;;;;35.40;30.20;;;;;6.61;90.67;101763.41;2097311;28;45853;-65
2024/01/21 02:53:14;;;;;;;;;33.00;30.50;;;;;6.60;90.40;101770.41;2096979;28;46329;-63
2024/01/21 02:54:15;;;;;;;;;38.50;29.00;;;;;6.61;90.46;101766.03;2097191;28;45716;-65
2024/01/21 02:55:16;;;;;;;;;36.50;31.25;;;;;6.61;90.48;101761.66;2095877;28;48174;-65
2024/01/21 02:56:23;;;;;;;;;31.75;29.00;;;;;6.61;90.15;101759.03;2096921;28;46231;-64
2024/01/21 02:57:23;;;;;;;;;32.60;28.60;;;;;6.59;90.07;101755.44;2096935;28;46551;-65
2024/01/21 02:58:23;;;;;;;;;31.50;28.00;;;;;6.60;90.17;101759.84;2098053;28;45606;-65
2024/01/21 02:59:24;;;;;;;;;31.50;28.25;;;;;6.60;90.27;101748.41;2096369;28;47059;-65
2024/01/21 03:00:24;;;;;;;;;27.25;26.00;;;;;6.60;90.49;101751.94;2096567;28;46598;-64
2024/01/21 03:01:24;;;;;;;;;33.00;29.00;;;;;6.60;90.42;101744.03;2096533;28;46553;-65
2024/01/21 03:02:25;;;;;;;;;30.25;30.25;;;;;6.60;90.53;101751.06;2095318;28;46114;-65
2024/01/21 03:03:25;;;;;;;;;33.00;29.75;;;;;6.59;90.33;101751.94;2096994;28;46260;-65
2024/01/21 03:04:25;;;;;;;;;30.00;27.75;;;;;6.58;90.54;101745.78;2097034;28;46627;-64
2024/01/21 03:05:26;;;;;;;;;13.00;12.00;;;;;6.57;90.31;101749.28;2097017;28;46554;-65
2024/01/21 03:06:26;;;;;;;;;33.25;30.50;;;;;6.56;90.47;101733.44;2096844;28;46364;-64
2024/01/21 03:07:26;;;;;;;;;27.25;24.50;;;;;6.55;90.08;101739.59;2096828;28;46743;-64
2024/01/21 03:08:27;;;;;;;;;33.25;29.25;;;;;6.53;90.24;101726.38;2097171;28;46585;-64
2024/01/21 03:09:27;;;;;;;;;33.75;30.00;;;;;6.54;90.70;101722.00;2096593;28;45927;-65
2024/01/21 03:10:27;;;;;;;;;26.25;22.75;;;;;6.54;90.40;101724.63;2096433;28;46403;-64
2024/01/21 03:11:28;;;;;;;;;31.25;27.00;;;;;6.54;90.60;101714.09;2097000;28;46447;-63
2024/01/21 03:12:28;;;;;;;;;27.00;27.00;;;;;6.56;90.63;101714.97;2096828;28;45170;-64
2024/01/21 03:13:28;;;;;;;;;29.75;27.50;;;;;6.57;90.24;101714.13;2097099;28;46619;-64
2024/01/21 03:14:29;;;;;;;;;31.75;28.75;;;;;6.55;90.21;101714.09;2096202;28;46563;-65
2024/01/21 03:15:29;;;;;;;;;28.25;24.25;;;;;6.53;90.12;101704.41;2096330;28;46500;-65
2024/01/21 03:16:29;;;;;;;;;31.25;26.25;;;;;6.51;90.28;101700.88;2097127;28;46229;-65
2024/01/21 03:17:29;;;;;;;;;30.00;26.25;;;;;6.50;90.24;101694.72;2097138;28;46894;-65
2024/01/21 03:18:30;;;;;;;;;30.75;26.75;;;;;6.51;90.15;101695.59;2096977;28;46292;-65
2024/01/21 03:19:31;;;;;;;;;33.25;33.25;;;;;6.51;90.47;101691.22;2095114;28;46904;-65
2024/01/21 03:20:31;;;;;;;;;33.00;29.75;;;;;6.51;90.19;101695.59;2096210;28;46395;-65
2024/01/21 03:21:31;;;;;;;;;28.00;28.00;;;;;6.50;90.42;101694.72;2096891;28;46819;-66
2024/01/21 03:22:31;;;;;;;;;31.00;26.25;;;;;6.47;90.10;101698.19;2096666;28;46194;-66
2024/01/21 03:23:32;;;;;;;;;29.00;26.75;;;;;6.44;89.98;101698.16;2096596;28;46454;-65
2024/01/21 03:24:33;;;;;;;;;28.80;27.60;;;;;6.43;89.89;101698.16;2096867;28;46706;-65
2024/01/21 03:25:33;;;;;;;;;32.25;31.25;;;;;6.42;90.04;101697.25;2096962;28;46209;-66
2024/01/21 03:26:34;;;;;;;;;29.50;27.00;;;;;6.40;89.87;101693.72;2097102;28;45144;-65
2024/01/21 03:27:34;;;;;;;;;32.75;27.75;;;;;6.41;90.13;101697.25;2096676;28;45827;-65
2024/01/21 03:28:34;;;;;;;;;32.50;28.50;;;;;6.40;90.27;101706.91;2096869;28;46792;-65
2024/01/21 03:29:35;;;;;;;;;26.50;24.25;;;;;6.40;90.70;101703.38;2096996;28;46186;-65
2024/01/21 03:30:35;;;;;;;;;33.25;28.75;;;;;6.40;90.31;101704.28;2096322;28;46426;-64
2024/01/21 03:31:35;;;;;;;;;28.00;25.25;;;;;6.41;90.57;101710.44;2095492;28;45923;-65
2024/01/21 03:32:36;;;;;;;;;28.50;25.50;;;;;6.41;90.74;101708.69;2079323;28;46537;-65
2024/01/21 03:33:37;;;;;;;;;31.75;28.75;;;;;6.39;90.58;101709.53;2088089;28;46600;-65
2024/01/21 03:34:42;;;;;;;;;33.80;29.20;;;;;6.40;90.71;101714.81;2097123;28;45187;-65
2024/01/21 03:35:42;;;;;;;;;26.80;25.40;;;;;6.40;90.53;101716.56;2096981;28;45684;-65
2024/01/21 03:36:42;;;;;;;;;27.25;25.25;;;;;6.39;90.37;101720.06;2095301;28;46280;-65
2024/01/21 03:37:43;;;;;;;;;29.50;27.75;;;;;6.38;90.52;101718.31;2096763;28;48178;-65
2024/01/21 03:38:45;;;;;;;;;29.25;24.25;;;;;6.39;90.47;101735.91;2096694;28;46537;-65
2024/01/21 03:39:45;;;;;;;;;32.20;29.00;;;;;6.36;90.84;101726.22;2097275;28;45206;-65
2024/01/21 03:40:46;;;;;;;;;32.00;29.25;;;;;6.36;90.32;101738.50;2101318;28;46824;-65
2024/01/21 03:41:47;;;;;;;;;30.75;28.00;;;;;6.37;90.55;101741.16;2100769;28;45947;-65
2024/01/21 03:42:48;;;;;;;;;31.00;28.80;;;;;6.37;90.46;101735.88;2097086;28;46675;-65
2024/01/21 03:43:48;;;;;;;;;28.00;25.00;;;;;6.37;90.53;101738.53;2097374;28;46142;-65
2024/01/21 03:44:49;;;;;;;;;33.25;29.00;;;;;6.39;90.83;101736.78;2097097;28;46991;-65
2024/01/21 03:45:49;;;;;;;;;33.60;28.60;;;;;6.41;90.69;101739.44;2096803;28;47240;-63
2024/01/21 03:46:50;;;;;;;;;30.25;28.75;;;;;6.40;90.82;101740.31;2098240;28;45959;-63
2024/01/21 03:47:50;;;;;;;;;30.75;29.00;;;;;6.41;91.00;101737.69;2100995;27;46446;-64
2024/01/21 03:48:50;;;;;;;;;27.25;23.00;;;;;6.41;90.87;101737.69;2096418;28;46752;-64
2024/01/21 03:49:51;;;;;;;;;25.00;25.00;;;;;6.44;91.06;101739.47;2096521;28;46333;-64
2024/01/21 03:50:51;;;;;;;;;28.75;28.00;;;;;6.44;90.82;101737.72;2097292;28;46700;-64
2024/01/21 03:51:52;;;;;;;;;31.25;27.75;;;;;6.46;90.65;101746.50;2097283;27;46367;-65
2024/01/21 03:52:52;;;;;;;;;30.50;26.25;;;;;6.47;91.15;101750.03;2096775;28;46323;-65
2024/01/21 03:53:52;;;;;;;;;24.50;23.00;;;;;6.50;90.81;101750.09;2095487;28;46576;-65
2024/01/21 03:54:53;;;;;;;;;26.00;25.50;;;;;6.52;90.69;101750.09;2096922;28;46681;-65
2024/01/21 03:55:53;;;;;;;;;34.50;32.50;;;;;6.51;90.29;101745.72;2096771;28;46374;-64
2024/01/21 03:56:53;;;;;;;;;28.75;24.25;;;;;6.52;90.36;101758.91;2103952;28;45819;-64
2024/01/21 03:57:54;;;;;;;;;32.00;24.75;;;;;6.53;90.71;101750.13;2103985;28;46320;-64
2024/01/21 03:58:54;;;;;;;;;23.75;22.00;;;;;6.56;90.52;101758.06;2104210;28;46310;-65
2024/01/21 03:59:54;;;;;;;;;28.00;28.00;;;;;6.57;90.37;101745.75;2104323;28;45772;-64
2024/01/21 04:00:55;;;;;;;;;25.00;21.25;;;;;6.54;90.11;101751.88;2106388;27;46112;-64
2024/01/21 04:01:55;;;;;;;;;25.25;23.25;;;;;6.54;90.19;101745.72;2104321;28;46435;-64
2024/01/21 04:02:55;;;;;;;;;25.00;23.00;;;;;6.52;89.82;101758.91;2104181;28;46150;-64
2024/01/21 04:03:55;;;;;;;;;26.25;26.25;;;;;6.51;89.97;101754.50;2104287;28;46222;-64
2024/01/21 04:04:56;;;;;;;;;27.25;26.25;;;;;6.53;90.05;101767.69;2104285;28;46416;-63
2024/01/21 04:05:56;;;;;;;;;27.75;24.25;;;;;6.55;90.21;101760.69;2104812;27;45113;-65
2024/01/21 04:06:57;;;;;;;;;30.50;27.75;;;;;6.54;90.06;101751.88;2104299;28;46969;-65
2024/01/21 04:07:59;;;;;;;;;27.25;23.50;;;;;6.56;90.03;101751.91;2103798;27;46701;-63
2024/01/21 04:08:59;;;;;;;;;25.00;23.80;;;;;6.57;90.06;101757.19;2104100;28;46200;-64
2024/01/21 04:10:00;;;;;;;;;22.00;21.75;;;;;6.57;89.75;101758.94;2102948;28;46395;-65
2024/01/21 04:11:00;;;;;;;;;28.25;23.25;;;;;6.57;89.86;101754.56;2104002;27;46685;-65
2024/01/21 04:12:01;;;;;;;;;24.25;22.50;;;;;6.57;90.17;101751.03;2103875;28;46846;-65
2024/01/21 04:13:01;;;;;;;;;24.00;22.25;;;;;6.57;89.89;101749.28;2103871;28;46979;-65
2024/01/21 04:14:01;;;;;;;;;27.25;26.00;;;;;6.60;89.81;101751.06;2103712;28;46479;-64
2024/01/21 04:15:02;;;;;;;;;28.00;26.75;;;;;6.62;90.01;101760.78;2104149;28;46716;-65
2024/01/21 04:16:03;;;;;;;;;26.75;26.25;;;;;6.62;90.02;101750.22;2104033;28;46306;-64
2024/01/21 04:17:03;;;;;;;;;21.75;21.75;;;;;6.67;89.76;101750.28;2104529;27;46992;-65
2024/01/21 04:18:03;;;;;;;;;23.50;23.25;;;;;6.68;89.62;101749.41;2103854;28;46645;-65
2024/01/21 04:19:04;;;;;;;;;29.50;27.00;;;;;6.70;89.45;101745.91;2104038;28;46265;-64
2024/01/21 04:20:07;;;;;;;;;23.50;21.75;;;;;6.72;89.56;101738.00;2104144;28;46262;-65
2024/01/21 04:21:08;;;;;;;;;31.80;24.60;;;;;6.72;89.41;101738.88;2104174;28;46795;-65
2024/01/21 04:22:08;;;;;;;;;24.75;24.00;;;;;6.72;89.40;101736.25;2103996;28;46611;-65
2024/01/21 04:23:08;;;;;;;;;25.75;25.00;;;;;6.72;89.31;101733.63;2104301;28;46010;-65
2024/01/21 04:24:09;;;;;;;;;34.00;29.25;;;;;6.71;89.14;101734.47;2104320;28;46445;-65
2024/01/21 04:25:09;;;;;;;;;23.75;20.75;;;;;6.72;89.01;101727.44;2104835;28;45210;-65
2024/01/21 04:26:09;;;;;;;;;27.25;24.75;;;;;6.72;89.08;101727.44;2104135;28;46466;-64
2024/01/21 04:27:09;;;;;;;;;31.00;27.75;;;;;6.72;89.29;101725.69;2105279;27;46257;-65
2024/01/21 04:28:10;;;;;;;;;26.25;24.75;;;;;6.75;89.09;101725.75;2103653;28;46966;-64
2024/01/21 04:29:10;;;;;;;;;23.50;22.50;;;;;6.76;89.16;101716.97;2096789;28;45548;-64
2024/01/21 04:30:11;;;;;;;;;29.75;27.25;;;;;6.76;89.14;101730.16;2095768;28;46775;-64
2024/01/21 04:31:11;;;;;;;;;27.25;25.50;;;;;6.75;89.18;101722.22;2095776;28;46133;-64
2024/01/21 04:32:11;;;;;;;;;22.25;20.50;;;;;6.76;88.99;101722.25;2096962;28;46435;-64
2024/01/21 04:33:12;;;;;;;;;27.25;22.00;;;;;6.78;89.16;101723.13;2096344;28;46299;-65
2024/01/21 04:34:12;;;;;;;;;26.50;24.25;;;;;6.79;88.69;101721.38;2096547;28;46656;-65
2024/01/21 04:35:13;;;;;;;;;22.00;22.00;;;;;6.78;88.66;101711.69;2096753;28;46362;-64
2024/01/21 04:36:20;;;;;;;;;22.00;22.00;;;;;6.79;88.46;101718.75;2097435;28;46135;-65
2024/01/21 04:37:20;;;;;;;;;24.80;21.40;;;;;6.77;88.41;101704.66;2096079;28;46923;-65
2024/01/21 04:38:25;;;;;;;;;20.50;19.00;;;;;6.76;88.21;101709.06;2096626;28;46596;-63